Time;durP1;ratioP1;P1;durP2;ratioP2;P2;SDS_P1;SDS_P2;PMS_P1;PMS_P2;Temp;Humidity;BMP_temperature;BMP_pressure;BME280_temperature;BME280_humidity;BME280_pressure;Samples;Min_cycle;Max_cycle;Signal;HPM_P1;HPM_P2
2022/08/04 00:00:22;;;;;;;3.67;2.85;;;;;;;16.56;100.00;91162.78;5034077;28;20574;-75
2022/08/04 00:03:06;;;;;;;6.60;3.55;;;;;;;16.51;100.00;91164.94;5034169;28;20127;-74
2022/08/04 00:06:02;;;;;;;3.58;2.80;;;;;;;16.43;100.00;91161.28;5034156;28;20025;-74
2022/08/04 00:08:30;;;;;;;4.65;3.28;;;;;;;16.37;100.00;91166.06;5034074;28;20041;-75
2022/08/04 00:10:58;;;;;;;3.80;3.30;;;;;;;16.23;100.00;91157.59;5032605;28;20081;-75
2022/08/04 00:13:29;;;;;;;6.10;3.45;;;;;;;16.20;100.00;91160.94;5033882;28;20049;-75
2022/08/04 00:16:03;;;;;;;3.53;3.20;;;;;;;16.11;100.00;91162.97;5033584;28;20052;-75
2022/08/04 00:18:34;;;;;;;3.67;3.05;;;;;;;16.12;100.00;91161.88;5032531;28;20040;-75
2022/08/04 00:21:04;;;;;;;4.45;3.13;;;;;;;16.02;100.00;91156.94;5032248;28;20042;-75
2022/08/04 00:23:33;;;;;;;4.00;3.50;;;;;;;16.02;100.00;91160.41;5033293;28;20037;-75
2022/08/04 00:25:59;;;;;;;4.05;3.35;;;;;;;16.00;100.00;91156.50;5033705;28;20473;-76
2022/08/04 00:28:26;;;;;;;4.38;2.90;;;;;;;16.00;100.00;91148.44;5033808;28;20142;-76
2022/08/04 00:30:53;;;;;;;4.78;3.33;;;;;;;16.01;100.00;91152.69;5032270;28;20044;-75
2022/08/04 00:33:19;;;;;;;3.78;3.40;;;;;;;15.88;100.00;91144.63;5033622;28;20036;-76
2022/08/04 00:35:47;;;;;;;4.70;3.38;;;;;;;15.87;100.00;91148.44;5033410;28;20045;-76
2022/08/04 00:38:15;;;;;;;4.00;3.53;;;;;;;15.91;100.00;91153.13;5032221;28;20095;-76
2022/08/04 00:41:18;;;;;;;3.25;2.95;;;;;;;16.00;100.00;91154.59;5033252;28;20034;-76
2022/08/04 00:43:54;;;;;;;3.88;3.15;;;;;;;15.97;100.00;91151.81;5033273;28;20118;-76
2022/08/04 00:46:58;;;;;;;2.50;2.30;;;;;;;15.87;100.00;91155.69;5033455;28;20065;-76
2022/08/04 00:50:01;;;;;;;3.72;3.30;;;;;;;15.75;100.00;91164.50;5033304;28;20116;-76
2022/08/04 00:52:32;;;;;;;2.65;2.35;;;;;;;15.61;100.00;91160.56;5033026;28;20068;-76
2022/08/04 00:55:12;;;;;;;4.57;2.97;;;;;;;15.56;100.00;91159.66;5030856;28;20373;-76
2022/08/04 00:57:59;;;;;;;7.78;3.60;;;;;;;15.56;100.00;91156.19;5033364;28;20040;-75
2022/08/04 01:00:25;;;;;;;3.75;3.28;;;;;;;15.73;100.00;91157.91;5033080;28;20061;-75
2022/08/04 01:03:13;;;;;;;6.53;3.20;;;;;;;15.77;100.00;91154.22;5033024;28;20767;-75
2022/08/04 01:06:10;;;;;;;4.13;2.92;;;;;;;15.82;100.00;91163.97;5032774;28;20029;-74
2022/08/04 01:09:00;;;;;;;3.58;3.03;;;;;;;15.86;100.00;91156.81;5032910;28;20033;-73
2022/08/04 01:11:56;;;;;;;3.55;2.85;;;;;;;15.92;100.00;91166.19;5032797;28;20470;-75
2022/08/04 01:14:46;;;;;;;4.38;3.17;;;;;;;15.94;100.00;91163.19;5032763;28;20069;-76
2022/08/04 01:17:11;;;;;;;4.82;3.50;;;;;;;15.86;100.00;91157.59;5032385;28;20464;-75
2022/08/04 01:19:55;;;;;;;5.20;4.07;;;;;;;15.84;100.00;91165.19;5032695;28;20060;-76
2022/08/04 01:22:33;;;;;;;3.53;2.92;;;;;;;15.79;100.00;91162.75;5032647;28;20044;-75
2022/08/04 01:25:16;;;;;;;3.20;2.90;;;;;;;15.79;100.00;91161.97;5032569;28;20488;-75
2022/08/04 01:27:51;;;;;;;;;;;;;;;15.74;100.00;91162.94;5031784;28;20120;-74
2022/08/04 01:30:17;;;;;;;4.45;3.22;;;;;;;15.44;100.00;91138.16;5032443;28;19913;-75
2022/08/04 01:32:48;;;;;;;3.88;3.30;;;;;;;15.43;100.00;91163.41;5032508;28;20041;-74
2022/08/04 01:35:33;;;;;;;5.03;3.65;;;;;;;15.41;100.00;91168.34;5030290;28;20415;-74
2022/08/04 01:38:14;;;;;;;2.83;2.63;;;;;;;15.44;100.00;91162.31;5032080;28;20053;-74
2022/08/04 01:40:41;;;;;;;6.65;3.38;;;;;;;15.46;100.00;91156.59;5032295;28;20029;-74
2022/08/04 01:43:09;;;;;;;3.47;3.17;;;;;;;15.44;100.00;91158.84;5032296;28;20026;-74
2022/08/04 01:45:36;;;;;;;3.05;2.65;;;;;;;15.42;100.00;91158.38;5032149;28;20407;-74
2022/08/04 01:48:02;;;;;;;3.67;3.33;;;;;;;15.43;100.00;91160.75;5032225;28;20028;-74
2022/08/04 01:50:33;;;;;;;3.88;3.50;;;;;;;15.47;100.00;91164.34;5031926;28;20040;-74
2022/08/04 01:52:59;;;;;;;2.95;2.65;;;;;;;15.47;100.00;91164.34;5032185;28;20040;-73
2022/08/04 01:55:28;;;;;;;2.72;2.50;;;;;;;15.47;100.00;91158.19;5031953;28;20052;-73
2022/08/04 01:57:58;;;;;;;2.90;2.65;;;;;;;15.42;100.00;91153.81;5030669;28;20041;-73
2022/08/04 02:00:26;;;;;;;3.22;2.58;;;;;;;15.44;100.00;91145.44;5031887;28;20491;-74
2022/08/04 02:02:53;;;;;;;3.42;3.10;;;;;;;15.42;100.00;91155.72;5031822;28;20026;-73
2022/08/04 02:05:21;;;;;;;3.17;2.80;;;;;;;15.37;100.00;91156.72;5031829;28;20021;-73
2022/08/04 02:08:00;;;;;;;4.88;3.05;;;;;;;15.33;100.00;91149.69;5030413;28;20025;-74
2022/08/04 02:10:46;;;;;;;3.30;3.00;;;;;;;15.25;100.00;91154.00;5031591;28;20031;-73
2022/08/04 02:13:26;;;;;;;4.95;3.72;;;;;;;15.15;100.00;91155.22;5031642;28;20492;-73
2022/08/04 02:16:02;;;;;;;3.95;3.25;;;;;;;15.07;100.00;91155.28;5031325;28;20041;-74
2022/08/04 02:18:56;;;;;;;3.88;3.15;;;;;;;15.03;100.00;91155.16;5031465;28;20036;-75
2022/08/04 02:21:24;;;;;;;4.38;3.13;;;;;;;15.05;100.00;91155.63;5031461;28;20032;-75
2022/08/04 02:23:57;;;;;;;3.60;3.30;;;;;;;15.07;100.00;91160.63;5031420;28;20029;-73
2022/08/04 02:26:28;;;;;;;3.72;3.30;;;;;;;15.07;100.00;91164.09;5031520;28;20053;-73
2022/08/04 02:29:14;;;;;;;3.83;2.90;;;;;;;15.09;100.00;91164.56;5031446;28;20036;-76
2022/08/04 02:31:43;;;;;;;2.83;2.53;;;;;;;15.10;100.00;91158.06;5031327;28;20029;-75
2022/08/04 02:34:23;;;;;;;4.07;3.00;;;;;;;15.06;100.00;91154.50;5031378;28;20252;-73
2022/08/04 02:36:51;;;;;;;3.45;2.80;;;;;;;14.96;100.00;91149.53;5031296;28;20040;-73
2022/08/04 02:39:19;;;;;;;3.47;2.80;;;;;;;14.92;100.00;91159.34;5029965;28;20098;-73
2022/08/04 02:41:46;;;;;;;4.25;3.28;;;;;;;14.82;100.00;91159.75;5031263;28;20037;-74
2022/08/04 02:44:13;;;;;;;3.38;2.85;;;;;;;14.80;100.00;91159.28;5031245;28;20061;-70
2022/08/04 02:46:40;;;;;;;5.68;3.22;;;;;;;14.67;100.00;91145.88;5031124;28;20025;-72
2022/08/04 02:49:08;;;;;;;3.72;3.13;;;;;;;14.74;100.00;91163.28;5031264;28;20029;-71
2022/08/04 02:51:39;;;;;;;3.50;2.80;;;;;;;14.70;100.00;91155.13;5031028;28;20021;-75
2022/08/04 02:54:05;;;;;;;3.03;2.72;;;;;;;14.78;100.00;91156.16;5031136;28;20107;-74
2022/08/04 02:56:34;;;;;;;3.20;2.80;;;;;;;14.72;100.00;91158.28;5031145;28;20025;-73
2022/08/04 02:59:03;;;;;;;4.60;3.45;;;;;;;14.67;100.00;91148.56;5031193;28;20040;-74
2022/08/04 03:01:29;;;;;;;8.55;3.20;;;;;;;14.64;100.00;91153.75;5031295;28;20064;-74
2022/08/04 03:04:16;;;;;;;4.15;3.35;;;;;;;14.61;100.00;91157.88;5031021;28;20106;-77
2022/08/04 03:06:48;;;;;;;3.70;2.95;;;;;;;14.54;100.00;91162.97;5031012;28;20028;-75
2022/08/04 03:10:02;;;;;;;4.20;3.28;;;;;;;14.45;100.00;91170.28;5030750;28;20025;-76
2022/08/04 03:12:46;;;;;;;3.42;3.05;;;;;;;14.34;100.00;91169.06;5030738;28;20625;-75
2022/08/04 03:15:48;;;;;;;4.15;3.22;;;;;;;14.26;100.00;91170.69;5030752;28;20057;-76
2022/08/04 03:18:45;;;;;;;4.20;3.05;;;;;;;14.16;100.00;91162.25;5030759;28;20037;-76
2022/08/04 03:21:52;;;;;;;4.70;3.05;;;;;;;14.20;100.00;91171.19;5029450;28;20025;-74
2022/08/04 03:24:36;;;;;;;4.25;3.08;;;;;;;14.21;100.00;91170.88;5011619;28;20026;-74
2022/08/04 03:27:01;;;;;;;3.50;3.20;;;;;;;14.21;100.00;91170.88;5030797;28;20025;-74
2022/08/04 03:29:44;;;;;;;4.25;3.80;;;;;;;14.20;100.00;91157.81;5030739;28;20035;-74
2022/08/04 03:32:27;;;;;;;4.35;3.50;;;;;;;14.16;100.00;91164.91;5030660;28;20029;-74
2022/08/04 03:35:30;;;;;;;4.82;3.40;;;;;;;14.14;100.00;91162.56;5030598;28;20025;-73
2022/08/04 03:38:01;;;;;;;4.82;3.38;;;;;;;14.15;100.00;91169.50;5030644;28;20026;-75
2022/08/04 03:40:34;;;;;;;3.72;3.20;;;;;;;14.12;100.00;91172.03;5030462;28;20018;-74
2022/08/04 03:43:34;;;;;;;4.85;3.85;;;;;;;14.17;100.00;91169.16;5030773;28;20026;-74
2022/08/04 03:46:34;;;;;;;4.90;3.45;;;;;;;14.26;100.00;91167.22;4989122;28;20034;-74
2022/08/04 03:49:14;;;;;;;6.97;3.47;;;;;;;14.40;100.00;91167.78;5030601;28;20030;-74
2022/08/04 03:55:22;;;;;;;3.00;2.70;;;;;;;14.71;100.00;91166.63;5030725;28;20546;-74
2022/08/04 03:58:19;;;;;;;3.55;2.90;;;;;;;14.83;100.00;91166.66;5030945;28;20029;-75
2022/08/04 04:01:11;;;;;;;4.47;3.33;;;;;;;14.92;100.00;91162.03;5011249;28;20056;-75
2022/08/04 04:04:00;;;;;;;4.53;3.80;;;;;;;15.04;100.00;91170.13;5032745;28;20022;-76
2022/08/04 04:06:47;;;;;;;3.53;3.15;;;;;;;15.15;100.00;91162.47;5033681;28;20024;-76
2022/08/04 04:09:15;;;;;;;4.00;3.30;;;;;;;15.24;100.00;91163.94;5034007;28;20033;-74
2022/08/04 04:11:58;;;;;;;4.50;3.08;;;;;;;15.38;100.00;91165.53;5033792;28;20060;-75
2022/08/04 04:15:07;;;;;;;3.33;2.90;;;;;;;15.46;100.00;91165.47;5033477;28;20501;-73
2022/08/04 04:17:45;;;;;;;3.30;3.00;;;;;;;15.61;100.00;91163.25;5033633;28;20081;-74
2022/08/04 04:20:58;;;;;;;2.92;2.50;;;;;;;15.76;100.00;91168.75;5033735;28;20025;-72
2022/08/04 04:23:39;;;;;;;4.72;2.67;;;;;;;15.80;100.00;91164.31;4992252;28;20032;-72
2022/08/04 04:26:26;;;;;;;4.43;2.38;;;;;;;15.81;100.00;91165.88;5033024;28;20033;-72
2022/08/04 04:29:16;;;;;;;2.75;2.35;;;;;;;15.92;100.00;91165.41;5033593;28;20025;-71
2022/08/04 04:31:56;;;;;;;2.63;2.42;;;;;;;15.95;100.00;91157.50;5030820;28;20052;-71
2022/08/04 04:34:56;;;;;;;3.50;2.70;;;;;;;16.08;100.00;91160.94;5013456;28;20025;-70
2022/08/04 04:37:52;;;;;;;2.97;2.55;;;;;;;16.21;100.00;91167.09;5013463;28;20555;-71
2022/08/04 04:40:39;;;;;;;2.85;2.63;;;;;;;16.34;100.00;91164.06;5013383;28;20024;-72
2022/08/04 04:43:22;;;;;;;3.10;2.60;;;;;;;16.44;100.00;91166.31;5012437;28;20677;-71
2022/08/04 04:46:06;;;;;;;3.22;2.53;;;;;;;16.52;100.00;91169.97;5013598;28;20439;-71
2022/08/04 04:48:54;;;;;;;3.30;2.85;;;;;;;16.66;100.00;91169.63;5013594;28;20044;-71
2022/08/04 04:51:30;;;;;;;3.38;2.70;;;;;;;16.78;100.00;91175.00;5013458;28;20111;-72
2022/08/04 04:53:58;;;;;;;3.17;2.60;;;;;;;16.96;100.00;91165.53;5012148;28;20180;-71
2022/08/04 04:56:35;;;;;;;4.80;2.47;;;;;;;17.11;100.00;91160.56;5013460;28;20022;-70
2022/08/04 04:59:07;;;;;;;2.80;2.28;;;;;;;17.27;100.00;91172.13;5013497;28;20033;-70
2022/08/04 05:02:01;;;;;;;4.47;2.65;;;;;;;17.39;100.00;91171.31;5013197;28;20065;-70
2022/08/04 05:05:20;;;;;;;2.60;2.33;;;;;;;17.65;100.00;91163.53;5013337;28;20444;-69
2022/08/04 05:08:03;;;;;;;3.78;2.42;;;;;;;17.80;100.00;91170.09;4997552;28;20041;-70
2022/08/04 05:10:53;;;;;;;3.95;2.75;;;;;;;17.98;100.00;91173.22;5008812;28;20530;-70
2022/08/04 05:13:41;;;;;;;2.67;2.47;;;;;;;18.36;100.00;91178.00;5013100;28;20174;-69
2022/08/04 05:16:15;;;;;;;4.00;2.63;;;;;;;19.60;97.98;91174.50;5012641;28;20056;-71
2022/08/04 05:18:45;;;;;;;2.20;2.00;;;;;;;20.00;93.47;91172.13;5012505;28;20026;-71
2022/08/04 05:21:32;;;;;;;2.92;2.50;;;;;;;20.77;83.96;91167.56;5027829;28;20030;-70
2022/08/04 05:24:03;;;;;;;2.95;2.50;;;;;;;24.00;66.31;91166.84;5012532;28;20061;-73
2022/08/04 05:26:34;;;;;;;2.80;2.50;;;;;;;26.36;57.42;91176.19;5012702;28;20480;-73
2022/08/04 05:29:06;;;;;;;4.13;2.92;;;;;;;25.96;58.66;91185.72;5012698;28;20034;-72
2022/08/04 05:31:36;;;;;;;3.25;2.40;;;;;;;27.72;54.06;91179.28;5012486;28;20411;-70
2022/08/04 05:34:11;;;;;;;3.05;2.60;;;;;;;26.97;54.14;91181.16;5011720;28;20550;-76
2022/08/04 05:36:40;;;;;;;6.03;3.00;;;;;;;26.26;56.28;91185.19;5012555;28;20021;-74
2022/08/04 05:39:12;;;;;;;3.28;2.90;;;;;;;26.05;56.47;91188.03;5012025;28;20036;-75
2022/08/04 05:41:39;;;;;;;4.45;3.30;;;;;;;28.16;51.46;91182.28;5012239;28;20511;-74
2022/08/04 05:44:07;;;;;;;5.25;3.42;;;;;;;27.87;52.27;91195.53;5012459;28;20112;-73
2022/08/04 05:46:34;;;;;;;6.65;4.38;;;;;;;28.09;52.16;91194.09;5012036;28;20034;-71
2022/08/04 05:49:01;;;;;;;4.75;4.00;;;;;;;30.50;48.35;91190.44;5011836;28;20484;-73
2022/08/04 05:51:29;;;;;;;7.15;4.20;;;;;;;31.91;45.58;91181.94;5012116;28;20490;-73
2022/08/04 05:53:56;;;;;;;4.45;3.00;;;;;;;32.91;43.12;91186.13;5012260;28;20096;-73
2022/08/04 05:56:23;;;;;;;4.53;3.53;;;;;;;34.12;40.84;91187.66;5011980;28;20563;-71
2022/08/04 05:58:51;;;;;;;3.90;3.00;;;;;;;35.67;38.14;91189.66;5012154;28;20029;-72
2022/08/04 06:01:17;;;;;;;8.25;3.78;;;;;;;35.34;37.83;91189.38;5012026;28;20025;-72
2022/08/04 06:03:44;;;;;;;6.75;4.60;;;;;;;34.08;38.90;91184.22;5026784;28;20026;-73
2022/08/04 06:06:11;;;;;;;10.32;6.45;;;;;;;31.55;41.94;91188.34;5010735;28;20100;-74
2022/08/04 06:08:37;;;;;;;4.88;3.40;;;;;;;28.27;48.51;91193.91;5012015;28;20566;-73
2022/08/04 06:11:06;;;;;;;4.10;3.05;;;;;;;26.92;51.51;91190.56;5011764;28;20022;-69
2022/08/04 06:13:42;;;;;;;4.75;3.75;;;;;;;27.84;50.59;91190.88;5011906;28;20026;-68
2022/08/04 06:16:09;;;;;;;5.07;3.95;;;;;;;26.37;52.88;91187.88;5011309;28;20054;-69
2022/08/04 06:18:38;;;;;;;5.63;3.58;;;;;;;26.12;54.58;91191.50;5011338;28;20036;-69
2022/08/04 06:21:06;;;;;;;7.28;3.35;;;;;;;26.03;55.55;91187.63;5011163;28;20030;-69
2022/08/04 06:23:36;;;;;;;4.82;3.10;;;;;;;25.36;56.36;91184.75;5026868;28;20083;-70
2022/08/04 06:26:03;;;;;;;3.95;3.08;;;;;;;25.89;58.06;91191.22;5011435;28;20349;-71
2022/08/04 06:28:30;;;;;;;7.53;4.10;;;;;;;27.67;55.81;91190.69;5010367;28;20061;-75
2022/08/04 06:31:01;;;;;;;3.75;3.20;;;;;;;30.21;49.87;91204.00;5011337;28;20025;-72
2022/08/04 06:33:33;;;;;;;4.55;3.28;;;;;;;30.35;48.31;91195.47;5011213;28;20034;-71
2022/08/04 06:36:01;;;;;;;4.03;3.45;;;;;;;28.97;50.63;91187.81;5011189;28;20061;-74
2022/08/04 06:38:28;;;;;;;3.03;2.78;;;;;;;31.67;46.26;91186.88;5026702;28;20049;-67
2022/08/04 06:40:56;;;;;;;3.55;2.97;;;;;;;31.32;45.35;91202.31;5010999;28;20488;-68
2022/08/04 06:43:24;;;;;;;2.90;2.60;;;;;;;33.54;42.73;91198.31;5011484;28;20543;-70
2022/08/04 06:45:50;;;;;;;3.05;2.75;;;;;;;35.97;38.40;91205.38;5011417;28;20108;-71
2022/08/04 06:48:17;;;;;;;3.42;3.13;;;;;;;36.67;37.42;91201.97;5010931;28;20104;-70
2022/08/04 06:50:47;;;;;;;3.20;2.80;;;;;;;37.37;36.22;91205.47;5011395;28;20109;-72
2022/08/04 06:53:13;;;;;;;3.58;3.03;;;;;;;36.20;36.33;91192.91;5010032;28;20381;-68
2022/08/04 06:55:41;;;;;;;3.25;2.95;;;;;;;36.64;35.85;91189.06;5011063;28;20036;-70
2022/08/04 06:58:09;;;;;;;2.60;2.40;;;;;;;36.41;34.49;91196.78;5011158;28;20526;-70
2022/08/04 07:00:36;;;;;;;3.22;2.63;;;;;;;38.93;33.50;91200.31;5011155;28;20042;-74
2022/08/04 07:03:02;;;;;;;3.10;2.80;;;;;;;39.61;32.94;91198.63;5010744;28;20088;-68
2022/08/04 07:05:29;;;;;;;4.18;3.35;;;;;;;39.92;31.83;91209.94;5011044;28;20029;-71
2022/08/04 07:07:55;;;;;;;2.95;2.63;;;;;;;40.60;30.17;91203.97;5011133;28;20064;-68
2022/08/04 07:10:22;;;;;;;3.22;2.53;;;;;;;40.13;30.14;91204.44;5011138;28;20432;-69
2022/08/04 07:12:48;;;;;;;2.40;2.20;;;;;;;39.44;30.44;91206.69;5011177;28;20152;-68
2022/08/04 07:15:17;;;;;;;2.90;2.60;;;;;;;39.61;30.38;91206.97;5011086;28;20030;-69
2022/08/04 07:17:43;;;;;;;2.88;2.60;;;;;;;41.97;27.26;91202.56;5010504;28;20192;-69
2022/08/04 07:20:09;;;;;;;8.63;2.97;;;;;;;40.18;29.89;91203.72;5011044;28;20087;-70
2022/08/04 07:22:36;;;;;;;4.60;3.05;;;;;;;40.50;30.33;91205.38;5011085;28;20116;-68
2022/08/04 07:25:07;;;;;;;4.25;3.00;;;;;;;42.31;28.48;91193.13;5010996;28;20066;-71
2022/08/04 07:27:32;;;;;;;5.15;3.75;;;;;;;40.63;30.43;91199.44;5010949;28;20467;-71
2022/08/04 07:29:58;;;;;;;2.88;2.67;;;;;;;40.40;29.03;91198.44;5010850;28;20500;-70
2022/08/04 07:32:24;;;;;;;4.80;3.15;;;;;;;40.88;29.02;91195.16;5010452;28;20060;-72
2022/08/04 07:34:50;;;;;;;3.13;2.83;;;;;;;42.05;28.26;91200.84;5014666;28;20033;-69
2022/08/04 07:37:16;;;;;;;2.67;2.47;;;;;;;41.32;29.05;91194.00;5029385;28;20746;-68
2022/08/04 07:39:42;;;;;;;3.15;2.47;;;;;;;43.36;27.24;91201.53;5014546;28;20052;-69
2022/08/04 07:42:08;;;;;;;2.42;2.00;;;;;;;41.66;27.20;91200.59;5014386;28;20411;-69
2022/08/04 07:44:34;;;;;;;2.63;2.28;;;;;;;41.13;29.03;91191.56;5014683;28;20030;-69
2022/08/04 07:47:05;;;;;;;1.75;1.65;;;;;;;41.11;26.80;91196.88;5013984;28;20041;-69
2022/08/04 07:49:31;;;;;;;1.83;1.70;;;;;;;41.22;27.00;91205.34;5014460;28;20105;-70
2022/08/04 07:51:59;;;;;;;5.28;1.95;;;;;;;43.95;25.16;91201.22;5014410;28;20114;-69
2022/08/04 07:54:25;;;;;;;2.38;1.90;;;;;;;45.42;22.66;91207.72;5014204;28;20855;-67
2022/08/04 07:56:51;;;;;;;1.55;1.45;;;;;;;45.52;23.96;91203.31;5014143;28;20133;-72
2022/08/04 07:59:18;;;;;;;1.92;1.60;;;;;;;46.81;21.37;91202.75;5014385;28;20030;-71
2022/08/04 08:01:44;;;;;;;1.90;1.80;;;;;;;46.81;21.63;91200.69;5013603;28;20040;-72
2022/08/04 08:04:11;;;;;;;1.60;1.50;;;;;;;44.29;22.82;91195.53;5014289;28;20034;-71
2022/08/04 08:06:39;;;;;;;1.77;1.67;;;;;;;41.77;25.08;91195.09;5014297;28;20026;-71
2022/08/04 08:09:14;;;;;;;1.48;1.38;;;;;;;42.13;25.88;91196.34;5013904;28;20033;-70
2022/08/04 08:11:45;;;;;;;1.80;1.70;;;;;;;42.51;24.98;91192.19;5013795;28;20076;-71
2022/08/04 08:14:12;;;;;;;1.87;1.77;;;;;;;42.46;24.31;91195.72;5014118;28;20084;-72
2022/08/04 08:16:37;;;;;;;1.70;1.60;;;;;;;42.36;24.18;91191.59;5013589;28;20101;-70
2022/08/04 08:19:04;;;;;;;1.55;1.45;;;;;;;40.77;26.20;91198.56;5013726;28;20558;-73
2022/08/04 08:21:30;;;;;;;1.60;1.50;;;;;;;35.69;29.67;91192.72;5013771;28;20029;-72
2022/08/04 08:23:56;;;;;;;2.70;1.80;;;;;;;32.35;32.55;91194.88;5013878;28;20037;-71
2022/08/04 08:26:21;;;;;;;2.47;2.25;;;;;;;31.28;35.02;91186.69;5013872;28;20029;-70
2022/08/04 08:28:47;;;;;;;3.15;2.85;;;;;;;30.48;37.07;91190.88;5013754;28;20034;-70
2022/08/04 08:31:12;;;;;;;1.70;1.60;;;;;;;31.09;36.30;91195.78;5013329;28;20038;-71
2022/08/04 08:33:39;;;;;;;2.75;1.73;;;;;;;35.91;31.49;91193.38;5013606;28;20076;-71
2022/08/04 08:36:54;;;;;;;6.68;2.30;;;;;;;38.44;29.81;91191.84;5013540;28;20080;-72
2022/08/04 08:39:41;;;;;;;4.57;2.45;;;;;;;39.00;28.75;91190.06;4985052;28;20037;-72
2022/08/04 08:42:30;;;;;;;1.88;1.77;;;;;;;36.40;30.96;91194.47;5024336;28;20030;-69
2022/08/04 08:45:17;;;;;;;3.35;1.80;;;;;;;32.03;35.17;91190.22;5023719;28;20025;-73
2022/08/04 08:48:12;;;;;;;4.07;2.50;;;;;;;30.50;38.00;91182.97;5023082;28;20037;-70
2022/08/04 08:50:59;;;;;;;2.10;1.90;;;;;;;30.75;38.95;91192.63;5012111;28;20037;-69
2022/08/04 08:53:55;;;;;;;5.72;2.40;;;;;;;29.92;39.48;91188.06;5033226;28;20095;-72
2022/08/04 08:56:51;;;;;;;2.55;2.00;;;;;;;28.92;41.54;91187.09;5033051;28;20033;-72
2022/08/04 08:59:34;;;;;;;6.90;2.80;;;;;;;28.42;43.52;91181.56;5031855;28;20029;-71
2022/08/04 09:02:53;;;;;;;2.22;1.90;;;;;;;30.60;40.40;91181.94;5032666;28;20030;-72
2022/08/04 09:05:55;;;;;;;2.78;1.92;;;;;;;34.49;34.59;91191.44;4991542;28;20456;-72
2022/08/04 09:08:37;;;;;;;6.93;3.42;;;;;;;34.38;32.91;91176.47;5032447;28;20071;-72
2022/08/04 09:11:11;;;;;;;3.72;2.00;;;;;;;34.31;33.71;91182.25;5032391;28;20053;-67
2022/08/04 09:13:48;;;;;;;2.08;1.73;;;;;;;31.34;35.91;91173.19;5032258;28;20053;-67
2022/08/04 09:16:28;;;;;;;1.73;1.63;;;;;;;29.51;40.23;91181.03;5031489;28;20554;-67
2022/08/04 09:19:11;;;;;;;2.28;2.03;;;;;;;29.44;40.15;91178.38;5023487;28;20038;-67
2022/08/04 09:21:46;;;;;;;1.80;1.67;;;;;;;30.30;38.35;91180.28;5017712;28;20111;-67
2022/08/04 09:24:28;;;;;;;2.40;1.65;;;;;;;36.34;32.21;91174.94;5012850;28;20028;-67
2022/08/04 09:27:00;;;;;;;1.75;1.65;;;;;;;36.86;29.77;91175.75;5012713;28;20044;-68
2022/08/04 09:29:46;;;;;;;1.85;1.63;;;;;;;34.01;31.24;91167.94;5012690;28;20385;-67
2022/08/04 09:32:31;;;;;;;1.63;1.52;;;;;;;36.59;30.00;91173.78;5012415;28;20025;-67
2022/08/04 09:35:12;;;;;;;2.00;1.80;;;;;;;32.27;35.10;91165.19;5012304;28;20026;-67
2022/08/04 09:37:47;;;;;;;4.30;1.80;;;;;;;32.37;34.12;91170.44;5012426;28;20029;-68
2022/08/04 09:40:46;;;;;;;7.13;1.50;;;;;;;31.75;34.19;91178.03;5012475;28;20113;-68
2022/08/04 09:43:43;;;;;;;1.92;1.20;;;;;;;31.40;35.26;91173.44;5019189;28;20025;-67
2022/08/04 09:46:34;;;;;;;1.83;1.52;;;;;;;30.48;36.79;91171.66;5010086;28;20120;-68
2022/08/04 09:49:14;;;;;;;2.38;2.00;;;;;;;30.09;37.85;91176.00;5012389;28;20480;-69
2022/08/04 09:51:52;;;;;;;9.50;2.55;;;;;;;29.40;39.71;91171.41;5012180;28;20033;-69
2022/08/04 09:54:27;;;;;;;2.13;1.92;;;;;;;28.79;41.63;91175.13;5012190;28;20513;-68
2022/08/04 09:57:15;;;;;;;3.00;1.92;;;;;;;28.64;42.62;91180.06;5011608;28;20273;-67
2022/08/04 10:00:03;;;;;;;2.05;1.67;;;;;;;28.46;43.33;91176.03;5011743;28;20037;-67
2022/08/04 10:02:34;;;;;;;2.25;2.03;;;;;;;27.68;44.22;91180.53;5010869;28;20087;-67
2022/08/04 10:05:04;;;;;;;2.35;1.90;;;;;;;27.34;44.68;91185.94;5012122;28;20026;-63
2022/08/04 10:08:19;;;;;;;2.28;1.90;;;;;;;27.21;45.31;91179.44;5012083;28;20030;-66
2022/08/04 10:11:32;;;;;;;2.08;1.85;;;;;;;27.09;46.29;91173.28;4994727;28;20041;-66
2022/08/04 10:14:04;;;;;;;2.60;2.30;;;;;;;27.16;47.10;91172.47;4990201;28;20058;-64
2022/08/04 10:16:57;;;;;;;8.02;2.58;;;;;;;27.15;47.37;91177.16;4989598;28;20069;-65
2022/08/04 10:19:31;;;;;;;3.10;2.35;;;;;;;26.99;47.59;91179.59;5006773;28;20040;-64
2022/08/04 10:22:03;;;;;;;2.50;2.25;;;;;;;27.10;47.22;91176.78;5011987;28;20053;-64
2022/08/04 10:24:28;;;;;;;2.05;1.80;;;;;;;27.14;46.89;91180.25;5011683;28;20169;-63
2022/08/04 10:27:05;;;;;;;2.63;2.13;;;;;;;27.17;46.77;91174.00;5011580;28;20569;-64
2022/08/04 10:29:40;;;;;;;3.38;2.00;;;;;;;28.27;44.93;91169.28;5011201;28;20403;-64
2022/08/04 10:32:15;;;;;;;2.00;1.90;;;;;;;29.02;42.82;91174.41;5009741;28;20487;-64
2022/08/04 10:35:03;;;;;;;3.58;2.22;;;;;;;30.39;41.00;91168.69;5011482;28;20412;-64
2022/08/04 10:37:41;;;;;;;1.73;1.60;;;;;;;30.96;38.88;91179.19;5011249;28;20065;-65
2022/08/04 10:40:36;;;;;;;2.20;1.88;;;;;;;31.97;38.73;91174.69;5011380;28;20041;-65
2022/08/04 10:43:15;;;;;;;3.72;2.20;;;;;;;31.81;40.07;91168.03;5011749;28;20045;-65
2022/08/04 10:45:52;;;;;;;4.05;1.85;;;;;;;32.42;38.06;91172.63;5011641;28;20061;-64
2022/08/04 10:48:38;;;;;;;1.85;1.75;;;;;;;32.02;36.58;91169.41;5011636;28;20025;-65
2022/08/04 10:51:35;;;;;;;1.85;1.60;;;;;;;33.55;34.05;91172.28;5011504;28;20026;-65
2022/08/04 10:54:08;;;;;;;1.60;1.50;;;;;;;34.84;32.24;91169.97;5010492;28;20070;-65
2022/08/04 10:56:45;;;;;;;2.25;1.67;;;;;;;37.99;29.91;91163.16;5011019;28;20030;-65
2022/08/04 10:59:23;;;;;;;2.63;1.80;;;;;;;39.46;27.10;91165.25;5011014;28;20452;-66
2022/08/04 11:01:54;;;;;;;1.52;1.42;;;;;;;36.07;30.47;91166.59;5010529;28;20026;-65
2022/08/04 11:04:43;;;;;;;1.65;1.55;;;;;;;34.17;32.38;91166.97;5011310;28;20129;-64
2022/08/04 11:07:11;;;;;;;2.28;2.08;;;;;;;32.60;34.73;91157.56;5012617;28;20026;-64
2022/08/04 11:09:39;;;;;;;1.80;1.70;;;;;;;31.42;36.06;91147.06;5015346;28;20048;-64
2022/08/04 11:12:05;;;;;;;2.08;1.83;;;;;;;30.76;37.81;91158.47;5015378;28;20813;-64
2022/08/04 11:14:38;;;;;;;2.75;1.73;;;;;;;30.79;37.65;91160.38;5015064;28;20040;-64
2022/08/04 11:17:27;;;;;;;1.60;1.50;;;;;;;30.23;37.66;91157.69;5015106;28;20124;-64
2022/08/04 11:20:12;;;;;;;1.60;1.50;;;;;;;29.90;37.82;91159.53;5015165;28;20030;-64
2022/08/04 11:23:11;;;;;;;2.22;1.65;;;;;;;30.24;37.11;91154.50;5015022;28;20496;-65
2022/08/04 11:26:02;;;;;;;1.60;1.48;;;;;;;30.45;35.87;91152.50;5015137;28;20480;-65
2022/08/04 11:28:55;;;;;;;1.70;1.60;;;;;;;31.93;34.61;91146.50;5015062;28;20030;-65
2022/08/04 11:31:30;;;;;;;1.90;1.80;;;;;;;35.48;30.06;91146.56;5014747;28;20040;-65
2022/08/04 11:34:04;;;;;;;2.67;1.85;;;;;;;38.62;27.74;91149.94;5015180;28;20030;-65
2022/08/04 11:36:38;;;;;;;1.80;1.70;;;;;;;38.31;29.06;91140.06;5014921;28;20037;-65
2022/08/04 11:39:21;;;;;;;2.13;1.70;;;;;;;39.23;27.29;91136.31;5014975;28;20036;-65
2022/08/04 11:41:52;;;;;;;1.85;1.73;;;;;;;41.18;26.55;91137.78;5014901;28;20052;-67
2022/08/04 11:44:44;;;;;;;1.75;1.65;;;;;;;40.69;26.18;91136.09;5014863;28;20109;-68
2022/08/04 11:47:31;;;;;;;1.70;1.60;;;;;;;41.42;24.11;91145.84;5014578;28;20034;-67
2022/08/04 11:50:04;;;;;;;1.70;1.60;;;;;;;39.33;25.77;91137.72;5014657;28;20476;-64
2022/08/04 11:52:32;;;;;;;1.58;1.48;;;;;;;36.41;28.90;91133.03;5014645;28;20068;-67
2022/08/04 11:55:02;;;;;;;1.67;1.55;;;;;;;34.00;29.81;91135.25;5014631;28;20092;-65
2022/08/04 11:57:28;;;;;;;2.42;1.70;;;;;;;32.93;30.48;91128.56;5014609;28;20026;-66
2022/08/04 11:59:56;;;;;;;1.95;1.80;;;;;;;32.77;31.98;91126.69;5014319;28;20033;-66
2022/08/04 12:02:40;;;;;;;4.30;1.60;;;;;;;31.67;34.05;91124.38;5014527;28;20038;-64
2022/08/04 12:05:08;;;;;;;2.95;1.80;;;;;;;32.69;33.04;91125.38;5014752;28;20105;-65
2022/08/04 12:08:01;;;;;;;2.65;1.88;;;;;;;36.34;30.86;91116.75;5014316;28;20559;-65
2022/08/04 12:10:45;;;;;;;2.65;1.75;;;;;;;37.04;28.51;91113.88;5014233;28;20105;-65
2022/08/04 12:13:32;;;;;;;1.77;1.67;;;;;;;38.98;27.51;91122.97;5014177;28;20030;-65
2022/08/04 12:16:16;;;;;;;1.90;1.80;;;;;;;39.06;26.44;91121.34;5013992;28;20045;-65
2022/08/04 12:18:50;;;;;;;1.70;1.60;;;;;;;38.21;26.52;91113.59;5013518;28;20036;-65